M I D A S
Marine Information and Data Acquisition System
Tripno 1684 of the Zeeleeuw from 2009-04-29 06:57:01 to 2009-04-29 15:12:57
Back to CruiseResearch ActivitiesStationsMapUnderway DataData graphs

EquipmentUnitsComment
TimeDGPSUTC
LatitudeDGPSDM.mWGS84
LongitudeDGPSDM.mWGS84
TemperatureSBE03/SBE38deg celciusITS90
ConductivitySBE21S/mITS90
SalinitySBE21 Practical Salinity Units
ChlorophylAChelsea fluorimeterg/lCalibrated in Aceton
Missing or incorrect values are displayed as -999
Sea surface data collected by the RV Zeeleeuw from 2009-04-29 06:58:23 to 2009-04-29 15:18:10
Time Latitude Longitude Temperature Conductivity Salinity ChlorophylA
2009-04-29 06:59:32 51°13.682 2°55.893 -999 0.066597 0.352307 -1.10504
2009-04-29 07:00:32 51°13.711 2°55.803 -999 0.066494 0.35177 -1.10504
2009-04-29 07:01:32 51°13.759 2°55.72 -999 0.066391 0.351251 -1.10504
2009-04-29 07:02:32 51°13.821 2°55.659 -999 0.066494 0.351835 -1.10504
2009-04-29 07:03:32 51°13.887 2°55.627 -999 0.066288 0.350737 -1.10504
2009-04-29 07:04:32 51°13.942 2°55.651 -999 0.067523 0.357539 -1.10504
2009-04-29 07:05:32 51°13.953 2°55.61 -999 0.051572 0.270979 -1.10504
2009-04-29 07:06:29 51°14.021 2°55.526 -999 0.067317 0.356531 -1.10504
2009-04-29 07:07:29 51°14.12 2°55.423 -999 0.067626 0.358198 -1.10504
2009-04-29 07:08:29 51°14.223 2°55.311 -999 0.071022 0.376831 -1.10504
2009-04-29 07:09:28 51°14.316 2°55.154 -999 0.06989 0.370647 -1.10504
2009-04-29 07:10:29 51°14.406 2°54.956 -999 0.070508 0.374052 -1.10504
2009-04-29 07:11:28 51°14.478 2°54.728 -999 0.068243 0.361662 -1.10504
2009-04-29 07:12:29 51°14.558 2°54.468 -999 0.06742 0.357195 -1.10504
2009-04-29 07:13:28 51°14.638 2°54.206 -999 0.068243 0.361718 -1.10504
2009-04-29 07:14:29 51°14.718 2°53.933 -999 0.065671 0.347689 -1.10504
2009-04-29 07:15:28 51°14.804 2°53.677 -999 0.067317 0.356688 -1.10504
2009-04-29 07:16:28 51°14.898 2°53.412 -999 0.06742 0.357292 -1.10504
2009-04-29 07:17:29 51°14.989 2°53.127 -999 0.06495 0.343808 -1.10504
2009-04-29 07:18:28 51°15.078 2°52.851 -999 0.065465 0.346655 -1.10504
2009-04-29 07:19:29 51°15.168 2°52.565 -999 0.060525 0.31979 -1.10504
2009-04-29 07:20:28 51°15.254 2°52.274 -999 0.05929 0.313071 -1.10504
2009-04-29 07:21:29 51°15.35 2°51.967 -999 0.059393 0.313687 -1.10504
2009-04-29 07:22:29 51°15.444 2°51.666 -999 0.05682 0.299713 -1.070216
2009-04-29 07:23:29 51°15.54 2°51.362 -999 0.056718 0.299246 -1.10504
2009-04-29 07:24:29 51°15.637 2°51.059 -999 0.056615 0.298719 -1.10504
2009-04-29 07:25:29 51°15.732 2°50.755 -999 0.055894 0.294825 -1.070216
2009-04-29 07:26:29 51°15.833 2°50.458 -999 0.055791 0.294278 -1.070216
2009-04-29 07:27:28 51°15.964 2°50.213 -999 0.048794 0.256477 -1.10504
2009-04-29 07:28:29 51°16.142 2°50.049 -999 0.045295 0.237806 -1.10504
2009-04-29 07:29:28 51°16.323 2°49.911 -999 0.043339 0.227374 -1.10504
2009-04-29 07:30:29 51°16.513 2°49.776 -999 0.045089 0.236784 -1.10504
2009-04-29 07:31:28 51°16.692 2°49.629 -999 0.043854 0.230174 -1.10504
2009-04-29 07:32:29 51°16.87 2°49.469 -999 0.046221 0.242897 -1.10504
2009-04-29 07:33:29 51°17.042 2°49.3 -999 0.04406 0.231354 -1.070216
2009-04-29 07:34:28 51°17.213 2°49.134 -999 0.043545 0.228612 -1.070216
2009-04-29 07:35:29 51°17.391 2°48.966 -999 0.044163 0.231962 -1.070216
2009-04-29 07:36:28 51°17.565 2°48.805 -999 0.045089 0.236949 -1.10504
2009-04-29 07:37:29 51°17.742 2°48.637 -999 0.043854 0.230342 -1.070216
2009-04-29 07:38:29 51°17.916 2°48.464 -999 0.042002 0.220497 -1.10504
2009-04-29 07:39:29 51°18.093 2°48.292 -999 0.043134 0.226579 -1.070216
2009-04-29 07:40:29 51°18.271 2°48.121 -999 0.042722 0.224398 -1.070216
2009-04-29 07:41:28 51°18.445 2°47.949 -999 0.042207 0.22168 -1.10504
2009-04-29 07:42:29 51°18.629 2°47.795 -999 0.041281 0.216767 -1.070216
2009-04-29 07:43:28 51°18.805 2°47.641 -999 0.041178 0.216232 -1.070216
2009-04-29 07:44:29 51°18.991 2°47.488 -999 0.040664 0.213531 -1.070216
2009-04-29 07:45:28 51°19.166 2°47.334 -999 0.040561 0.212993 -1.070216
2009-04-29 07:46:29 51°19.351 2°47.182 -999 0.041487 0.217983 -1.070216
2009-04-29 07:47:28 51°19.528 2°47.029 -999 0.040355 0.211967 -1.10504
2009-04-29 07:48:29 51°19.712 2°46.875 -999 0.040973 0.215277 -1.070216
2009-04-29 07:49:29 51°19.89 2°46.728 -999 0.040252 0.211456 -1.10504
2009-04-29 07:50:29 51°20.068 2°46.58 -999 0.040973 0.215337 -1.070216
2009-04-29 07:51:29 51°20.246 2°46.422 -999 0.041076 0.215904 -1.070216
2009-04-29 07:52:28 51°20.425 2°46.263 -999 0.040046 0.210429 -1.070216
2009-04-29 07:53:29 51°20.609 2°46.098 -999 0.041796 0.219806 -1.070216
2009-04-29 07:54:29 51°20.776 2°45.903 -999 0.040149 0.21104 -1.070216
2009-04-29 07:55:29 51°20.927 2°45.67 -999 0.040664 0.213793 -1.070216
2009-04-29 07:56:29 51°21.076 2°45.435 -999 0.040355 0.212173 -1.070216
2009-04-29 07:57:29 51°21.229 2°45.215 -999 0.040767 0.214399 -1.070216
2009-04-29 07:58:29 51°21.399 2°45.051 -999 0.043031 0.226599 -1.10504
2009-04-29 07:59:29 51°21.579 2°44.912 -999 0.044266 0.23324 -1.070216
2009-04-29 08:00:29 51°21.759 2°44.768 -999 0.042722 0.224968 -1.070216
2009-04-29 08:01:28 51°21.939 2°44.626 -999 0.043237 0.227801 -1.070216
2009-04-29 08:02:29 51°22.124 2°44.479 -999 0.043237 0.227873 -1.070216
2009-04-29 08:03:29 51°22.307 2°44.334 -999 0.043237 0.227937 -1.070216
2009-04-29 08:04:28 51°22.486 2°44.19 -999 0.04159 0.219146 -1.070216
2009-04-29 08:05:29 51°22.67 2°44.043 -999 0.043237 0.2281 -1.070216
2009-04-29 08:06:29 51°22.849 2°43.895 -999 0.042825 0.225835 -1.070216
2009-04-29 08:07:29 51°23.024 2°43.734 -999 0.042619 0.224835 -1.070216
2009-04-29 08:08:28 51°23.201 2°43.584 -999 0.04159 0.219328 -1.070216
2009-04-29 08:09:29 51°23.384 2°43.438 -999 0.04159 0.219353 -1.070216
2009-04-29 08:10:28 51°23.562 2°43.304 -999 0.042413 0.223802 -1.070216
2009-04-29 08:11:29 51°23.748 2°43.159 -999 0.042105 0.222182 -1.070216
2009-04-29 08:12:28 51°23.924 2°43.011 -999 0.041178 0.217241 -1.070216
2009-04-29 08:13:29 51°24.108 2°42.861 -999 0.042002 0.221682 -1.070216
2009-04-29 08:14:29 51°24.289 2°42.709 -999 0.041899 0.221192 -1.070216
2009-04-29 08:15:29 51°24.467 2°42.556 -999 0.04159 0.219528 -1.070216
2009-04-29 08:16:29 51°24.642 2°42.398 -999 0.041487 0.219024 -1.070216
2009-04-29 08:17:29 51°24.82 2°42.245 -999 0.041796 0.220728 -1.070216
2009-04-29 08:18:29 51°24.998 2°42.096 -999 0.04159 0.219627 -1.070216
2009-04-29 08:19:29 51°25.178 2°41.951 -999 0.041796 0.220758 -1.070216
2009-04-29 08:20:29 51°25.357 2°41.805 -999 0.042413 0.224119 -1.070216
2009-04-29 08:21:29 51°25.534 2°41.655 -999 0.041281 0.218039 -1.070216
2009-04-29 08:22:29 51°25.71 2°41.501 -999 0.042002 0.221911 -1.070216
2009-04-29 08:23:29 51°25.887 2°41.351 -999 0.04159 0.219719 -1.070216
2009-04-29 08:24:28 51°26.06 2°41.203 -999 0.041076 0.217 -1.070216
2009-04-29 08:25:29 51°26.235 2°41.035 -999 0.042002 0.222011 -1.035392
2009-04-29 08:26:29 51°26.406 2°40.869 -999 0.041487 0.219232 -1.070216
2009-04-29 08:27:29 51°26.577 2°40.702 -999 0.04159 0.21981 -1.070216
2009-04-29 08:28:29 51°26.748 2°40.53 -999 0.041178 0.217639 -1.070216
2009-04-29 08:29:29 51°26.918 2°40.357 -999 0.041487 0.219312 -1.070216
2009-04-29 08:30:29 51°27.089 2°40.187 -999 0.041076 0.217137 -1.070216
2009-04-29 08:31:29 51°27.26 2°40.02 -999 0.041178 0.217705 -1.070216
2009-04-29 08:32:29 51°27.432 2°39.855 -999 0.040561 0.214371 -1.070216
2009-04-29 08:33:28 51°27.604 2°39.703 -999 0.041796 0.221045 -1.070216
2009-04-29 08:34:29 51°27.781 2°39.541 -999 0.041281 0.21837 -1.070216
2009-04-29 08:35:29 51°27.954 2°39.377 -999 0.041693 0.220576 -1.070216
2009-04-29 08:36:29 51°28.129 2°39.22 -999 0.041178 0.217806 -1.070216
2009-04-29 08:37:29 51°28.31 2°39.097 -999 0.042105 0.222821 -1.070216
2009-04-29 08:38:29 51°28.499 2°39.117 -999 0.048588 0.257921 -1.070216
2009-04-29 08:39:29 51°28.635 2°39.306 -999 0.049102 0.26081 -1.035392
2009-04-29 08:40:28 51°28.715 2°39.566 -999 0.049411 0.262598 -1.070216
2009-04-29 08:41:29 51°28.793 2°39.842 -999 0.049205 0.261511 -1.070216
2009-04-29 08:42:28 51°28.868 2°40.109 -999 0.049617 0.263779 -1.070216
2009-04-29 08:43:29 51°28.963 2°40.372 -999 0.048073 0.255368 -1.070216
2009-04-29 08:44:29 51°29.055 2°40.628 -999 0.048999 0.260445 -1.070216
2009-04-29 08:45:29 51°29.147 2°40.883 -999 0.048999 0.260476 -1.070216
2009-04-29 08:46:29 51°29.24 2°41.135 -999 0.048382 0.257122 -1.070216
2009-04-29 08:47:29 51°29.334 2°41.388 -999 0.049102 0.261115 -1.035392
2009-04-29 08:48:29 51°29.429 2°41.639 -999 0.048176 0.256073 -1.070216
2009-04-29 08:49:29 51°29.523 2°41.892 -999 0.050749 0.270144 -1.070216
2009-04-29 08:50:29 51°29.615 2°42.147 -999 0.048999 0.260622 -1.070216
2009-04-29 08:51:29 51°29.695 2°42.381 -999 0.051366 0.273547 -1.070216
2009-04-29 08:52:29 51°29.784 2°42.629 -999 0.048794 0.259512 -1.070216
2009-04-29 08:53:29 51°29.875 2°42.891 -999 0.051263 0.273046 -1.070216
2009-04-29 08:54:29 51°29.971 2°43.143 -999 0.048999 0.260671 -1.070216
2009-04-29 08:55:29 51°30.063 2°43.397 -999 0.049514 0.263542 -1.070216
2009-04-29 08:56:29 51°30.15 2°43.654 -999 0.047867 0.254574 -1.070216
2009-04-29 08:57:29 51°30.243 2°43.905 -999 0.050029 0.266361 -1.070216
2009-04-29 08:58:29 51°30.338 2°44.157 -999 0.048794 0.259675 -1.070216
2009-04-29 08:59:29 51°30.432 2°44.407 -999 0.048485 0.258004 -1.070216
2009-04-29 09:00:28 51°30.524 2°44.654 -999 0.048897 0.260292 -1.035392
2009-04-29 09:01:28 51°30.62 2°44.901 -999 0.047765 0.254126 -1.035392
2009-04-29 09:02:29 51°30.72 2°45.154 -999 0.048073 0.255826 -1.070216
2009-04-29 09:03:29 51°30.818 2°45.4 -999 0.048176 0.256425 -1.035392
2009-04-29 09:04:29 51°30.914 2°45.649 -999 0.049205 0.262026 -1.035392
2009-04-29 09:05:28 51°31.005 2°45.896 -999 0.048485 0.258148 -1.070216
2009-04-29 09:06:29 51°31.098 2°46.151 -999 0.048382 0.257597 -1.035392
2009-04-29 09:07:29 51°31.192 2°46.398 -999 0.048794 0.259851 -1.035392
2009-04-29 09:08:29 51°31.287 2°46.642 -999 0.048485 0.258205 -1.070216
2009-04-29 09:09:29 51°31.377 2°46.89 -999 0.048485 0.258236 -1.070216
2009-04-29 09:10:29 51°31.466 2°47.14 -999 0.048382 0.257671 -1.070216
2009-04-29 09:11:29 51°31.553 2°47.391 -999 0.048279 0.257138 -1.070216
2009-04-29 09:12:28 51°31.641 2°47.637 -999 0.048382 0.257737 -1.035392
2009-04-29 09:13:28 51°31.733 2°47.884 -999 0.047662 0.253816 -1.070216
2009-04-29 09:14:28 51°31.827 2°48.125 -999 0.04972 0.265022 -1.035392
2009-04-29 09:15:28 51°31.918 2°48.369 -999 0.048485 0.258333 -1.035392
2009-04-29 09:16:28 51°32.006 2°48.617 -999 0.048382 0.257868 -1.035392
2009-04-29 09:17:28 51°32.097 2°48.859 -999 0.047456 0.252791 -1.035392
2009-04-29 09:18:29 51°32.187 2°49.112 -999 0.048588 0.259043 -1.035392
2009-04-29 09:19:28 51°32.275 2°49.358 -999 0.048382 0.257952 -1.035392
2009-04-29 09:20:29 51°32.366 2°49.609 -999 0.048897 0.260765 -1.070216
2009-04-29 09:21:28 51°32.454 2°49.853 -999 0.048073 0.256296 -1.035392
2009-04-29 09:22:29 51°32.54 2°50.109 -999 0.047868 0.255205 -1.070216
2009-04-29 09:23:29 51°32.619 2°50.366 -999 0.048073 0.256357 -1.035392
2009-04-29 09:24:29 51°32.699 2°50.624 -999 0.047868 0.255261 -1.035392
2009-04-29 09:25:29 51°32.78 2°50.882 -999 0.048073 0.256418 -1.035392
2009-04-29 09:26:28 51°32.86 2°51.135 -999 0.049926 0.266566 -1.070216
2009-04-29 09:27:29 51°32.943 2°51.393 -999 0.049411 0.263747 -1.035392
2009-04-29 09:28:28 51°33.028 2°51.637 -999 0.048691 0.25986 -1.035392
2009-04-29 09:29:28 51°33.118 2°51.883 -999 0.048999 0.261563 -1.035392
2009-04-29 09:30:28 51°33.211 2°52.124 -999 0.047662 0.254213 -1.070216
2009-04-29 09:31:28 51°33.299 2°52.372 -999 0.048279 0.257685 -1.035392
2009-04-29 09:32:28 51°33.388 2°52.618 -999 0.048279 0.257807 -1.035392
2009-04-29 09:33:28 51°33.479 2°52.862 -999 0.048897 0.261032 -1.035392
2009-04-29 09:34:28 51°33.567 2°53.106 -999 0.048485 0.258927 -1.035392
2009-04-29 09:35:28 51°33.659 2°53.344 -999 0.047868 0.255561 -1.070216
2009-04-29 09:36:29 51°33.75 2°53.59 -999 0.048794 0.260683 -1.035392
2009-04-29 09:37:28 51°33.834 2°53.831 -999 0.050646 0.270855 -1.035392
2009-04-29 09:38:29 51°33.925 2°54.078 -999 0.048588 0.259573 -1.070216
2009-04-29 09:39:28 51°34.014 2°54.314 -999 0.048485 0.259046 -1.035392
2009-04-29 09:40:28 51°34.104 2°54.555 -999 0.047559 0.254072 -1.035392
2009-04-29 09:41:29 51°34.19 2°54.806 -999 0.048279 0.258049 -1.035392
2009-04-29 09:42:28 51°34.281 2°55.043 -999 0.049514 0.264788 -1.035392
2009-04-29 09:43:29 51°34.379 2°55.282 -999 0.047765 0.2553 -1.070216
2009-04-29 09:44:29 51°34.477 2°55.516 -999 0.04797 0.256385 -1.035392
2009-04-29 09:45:29 51°34.574 2°55.752 -999 0.047147 0.251967 -1.070216
2009-04-29 09:46:28 51°34.667 2°55.986 -999 0.047456 0.253717 -1.035392
2009-04-29 09:47:28 51°34.761 2°56.223 -999 0.04725 0.252533 -1.035392
2009-04-29 09:48:28 51°34.851 2°56.465 -999 0.047662 0.254851 -1.035392
2009-04-29 09:49:28 51°34.935 2°56.707 -999 0.048073 0.257127 -1.035392
2009-04-29 09:50:29 51°35.024 2°56.949 -999 0.046324 0.247601 -1.035392
2009-04-29 09:51:28 51°35.111 2°57.182 -999 0.048279 0.258345 -1.035392
2009-04-29 09:52:29 51°35.203 2°57.423 -999 0.04797 0.256652 -1.035392
2009-04-29 09:53:29 51°35.295 2°57.656 -999 0.04725 0.252744 -1.035392
2009-04-29 09:54:29 51°35.384 2°57.891 -999 0.050234 0.269126 -1.035392
2009-04-29 09:55:29 51°35.472 2°58.128 -999 0.047868 0.25615 -1.035392
2009-04-29 09:56:28 51°35.562 2°58.356 -999 0.048485 0.259586 -1.035392
2009-04-29 09:57:28 51°35.655 2°58.587 -999 0.04797 0.256731 -1.035392
2009-04-29 09:58:28 51°35.746 2°58.82 -999 0.047765 0.255705 -1.035392
2009-04-29 09:59:29 51°35.832 2°59.067 -999 0.04406 0.235323 -1.035392
2009-04-29 10:00:28 51°35.786 2°59.32 -999 0.048588 0.26027 -1.035392
2009-04-29 10:01:29 51°35.654 2°59.549 -999 0.048382 0.259142 -1.035392
2009-04-29 10:02:28 51°35.514 2°59.759 -999 0.047456 0.25409 -1.035392
2009-04-29 10:03:28 51°35.371 2°59.974 -999 0.044472 0.237803 -1.035392
2009-04-29 10:04:28 51°35.227 3°0.19 -999 0.046941 0.251267 -1.035392
2009-04-29 10:05:28 51°35.088 3°0.414 -999 0.045501 0.243384 -1.035392
2009-04-29 10:06:29 51°34.945 3°0.643 -999 0.045809 0.245132 -1.035392
2009-04-29 10:07:28 51°34.805 3°0.862 -999 0.045295 0.242314 -1.035392
2009-04-29 10:08:29 51°34.663 3°1.096 -999 0.045809 0.245145 -1.035392
2009-04-29 10:09:28 51°34.518 3°1.313 -999 0.044677 0.238905 -1.035392
2009-04-29 10:10:28 51°34.32 3°1.28 -999 0.048279 0.258756 -1.035392
2009-04-29 10:11:28 51°34.191 3°1.01 -999 0.052396 0.281353 -1.035392
2009-04-29 10:12:29 51°34.086 3°0.7 -999 0.050132 0.268935 -1.035392
2009-04-29 10:13:28 51°34 3°0.39 -999 0.050029 0.268361 -1.035392
2009-04-29 10:14:28 51°33.915 3°0.072 -999 0.050955 0.27343 -1.035392
2009-04-29 10:15:29 51°33.83 2°59.747 -999 0.049617 0.266161 -1.035392
2009-04-29 10:16:28 51°33.752 2°59.427 -999 0.050029 0.268462 -1.035392
2009-04-29 10:17:29 51°33.669 2°59.097 -999 0.049823 0.267314 -1.035392
2009-04-29 10:18:29 51°33.589 2°58.769 -999 0.048073 0.257739 -1.035392
2009-04-29 10:19:29 51°33.51 2°58.443 -999 0.049308 0.264521 -1.035392
2009-04-29 10:20:28 51°33.431 2°58.124 -999 0.048382 0.259511 -1.035392
2009-04-29 10:21:29 51°33.351 2°57.793 -999 0.051161 0.27475 -1.035392
2009-04-29 10:22:29 51°33.347 2°57.473 -999 0.046324 0.248227 -1.035392
2009-04-29 10:23:28 51°33.398 2°57.164 -999 0.048794 0.261873 -1.035392
2009-04-29 10:24:29 51°33.439 2°56.832 -999 0.048279 0.258982 -1.035392
2009-04-29 10:25:28 51°33.463 2°56.502 -999 0.047765 0.256205 -1.035392
2009-04-29 10:26:28 51°33.474 2°56.16 -999 0.04972 0.267162 -1.035392
2009-04-29 10:27:28 51°33.465 2°55.813 -999 0.049308 0.264835 -1.035392
2009-04-29 10:28:29 51°33.412 2°55.464 -999 0.044677 0.239423 -1.035392
2009-04-29 10:29:28 51°33.322 2°55.139 -999 0.047147 0.253011 -1.035392
2009-04-29 10:30:28 51°33.185 2°54.855 -999 0.043545 0.233263 -1.035392
2009-04-29 10:31:29 51°32.983 2°54.709 -999 0.039944 0.213591 -1.035392
2009-04-29 10:32:28 51°32.768 2°54.71 -999 0.040458 0.21645 -1.035392
2009-04-29 10:33:29 51°32.544 2°54.738 -999 0.038709 0.206989 -1.035392
2009-04-29 10:34:29 51°32.324 2°54.752 -999 0.037165 0.198618 -1.035392
2009-04-29 10:35:29 51°32.113 2°54.657 -999 0.051675 0.278137 -1.035392
2009-04-29 10:36:28 51°31.954 2°54.421 -999 0.053013 0.285658 -1.035392
2009-04-29 10:37:29 51°31.84 2°54.106 -999 0.053528 0.288527 -1.035392
2009-04-29 10:38:28 51°31.743 2°53.788 -999 0.05363 0.289086 -1.035392
2009-04-29 10:39:29 51°31.64 2°53.46 -999 0.051881 0.279363 -1.035392
2009-04-29 10:40:29 51°31.536 2°53.139 -999 0.053013 0.285653 -1.035392
2009-04-29 10:41:28 51°31.434 2°52.824 -999 0.053425 0.287958 -1.035392
2009-04-29 10:42:29 51°31.325 2°52.502 -999 0.052498 0.28284 -1.035392
2009-04-29 10:43:29 51°31.217 2°52.187 -999 0.053322 0.287439 -1.035392
2009-04-29 10:44:29 51°31.104 2°51.877 -999 0.053528 0.288562 -1.035392
2009-04-29 10:45:29 51°30.992 2°51.566 -999 0.049926 0.268682 -1.035392
2009-04-29 10:46:28 51°30.882 2°51.262 -999 0.050749 0.273224 -1.035392
2009-04-29 10:47:28 51°30.77 2°50.952 -999 0.048691 0.261874 -1.035392
2009-04-29 10:48:29 51°30.659 2°50.636 -999 0.05044 0.271546 -1.035392
2009-04-29 10:49:29 51°30.552 2°50.323 -999 0.049308 0.265336 -1.035392
2009-04-29 10:50:28 51°30.444 2°50.016 -999 0.04972 0.267622 -1.035392
2009-04-29 10:51:29 51°30.327 2°49.703 -999 0.049308 0.265355 -1.035392
2009-04-29 10:52:29 51°30.21 2°49.399 -999 0.049 0.263641 -1.035392
2009-04-29 10:53:29 51°30.093 2°49.093 -999 0.049926 0.268761 -1.035392
2009-04-29 10:54:29 51°29.979 2°48.783 -999 0.048897 0.263093 -1.035392
2009-04-29 10:55:29 51°29.864 2°48.476 -999 0.048588 0.261448 -1.035392
2009-04-29 10:56:29 51°29.747 2°48.169 -999 0.047765 0.256927 -1.035392
2009-04-29 10:57:28 51°29.631 2°47.871 -999 0.046633 0.250698 -1.035392
2009-04-29 10:58:29 51°29.514 2°47.559 -999 0.047662 0.256392 -1.035392
2009-04-29 10:59:29 51°29.398 2°47.251 -999 0.046324 0.248994 -1.035392
2009-04-29 11:00:29 51°29.283 2°46.945 -999 0.046941 0.252459 -1.035392
2009-04-29 11:01:29 51°29.17 2°46.638 -999 0.048485 0.260922 -1.035392
2009-04-29 11:02:29 51°29.059 2°46.331 -999 0.046015 0.247355 -1.035392
2009-04-29 11:03:29 51°28.963 2°46.01 -999 0.045089 0.242257 -1.035392
2009-04-29 11:04:29 51°28.901 2°45.673 -999 0.046941 0.252472 -1.035392
2009-04-29 11:05:29 51°28.854 2°45.333 -999 0.045501 0.244544 -1.035392
2009-04-29 11:06:29 51°28.81 2°44.993 -999 0.048176 0.259393 -1.035392
2009-04-29 11:07:29 51°28.732 2°44.666 -999 0.042722 0.229224 -1.035392
2009-04-29 11:08:28 51°28.642 2°44.351 -999 0.043443 0.233358 -1.035392
2009-04-29 11:09:29 51°28.528 2°44.04 -999 0.041693 0.223859 -1.035392
2009-04-29 11:10:29 51°28.402 2°43.749 -999 0.040973 0.219898 -1.035392
2009-04-29 11:11:29 51°28.278 2°43.457 -999 0.043237 0.232327 -1.035392
2009-04-29 11:12:28 51°28.146 2°43.179 -999 0.042002 0.225566 -1.035392
2009-04-29 11:13:29 51°27.993 2°42.914 -999 0.041076 0.220524 -1.035392
2009-04-29 11:14:29 51°27.845 2°42.648 -999 0.041796 0.224464 -1.035392
2009-04-29 11:15:29 51°27.699 2°42.38 -999 0.040458 0.217131 -1.035392
2009-04-29 11:16:29 51°27.522 2°42.2 -999 0.047147 0.253913 -1.035392
2009-04-29 11:17:28 51°27.35 2°42.296 -999 0.042311 0.227188 -1.035392
2009-04-29 11:18:29 51°27.183 2°42.462 -999 0.039841 0.213803 -1.035392
2009-04-29 11:19:29 51°27.016 2°42.624 -999 0.039944 0.214368 -1.035392
2009-04-29 11:20:29 51°26.851 2°42.786 -999 0.040047 0.214937 -1.035392
2009-04-29 11:21:29 51°26.681 2°42.942 -999 0.039841 0.213832 -1.035392
2009-04-29 11:22:29 51°26.508 2°43.095 -999 0.044369 0.238632 -1.035392
2009-04-29 11:23:29 51°26.419 2°43.319 -999 0.045809 0.246627 -1.035392
2009-04-29 11:24:29 51°26.483 2°43.549 -999 0.039532 0.212098 -1.035392
2009-04-29 11:25:29 51°26.56 2°43.778 -999 0.037886 0.203193 -1.035392
2009-04-29 11:26:29 51°26.635 2°44.01 -999 0.037988 0.203735 -1.035392
2009-04-29 11:27:29 51°26.707 2°44.244 -999 0.039326 0.211056 -1.035392
2009-04-29 11:28:28 51°26.777 2°44.475 -999 0.039841 0.21385 -1.035392
2009-04-29 11:29:29 51°26.851 2°44.712 -999 0.039223 0.210477 -1.035392
2009-04-29 11:30:29 51°26.918 2°44.952 -999 0.038709 0.207688 -1.035392
2009-04-29 11:31:29 51°26.988 2°45.189 -999 0.039429 0.211653 -1.035392
2009-04-29 11:32:29 51°27.063 2°45.423 -999 0.039018 0.209391 -1.035392
2009-04-29 11:33:29 51°27.144 2°45.65 -999 0.038812 0.208273 -1.035392
2009-04-29 11:34:29 51°27.224 2°45.875 -999 0.038915 0.208837 -1.035392
2009-04-29 11:35:28 51°27.3 2°46.099 -999 0.038194 0.204925 -1.035392
2009-04-29 11:36:29 51°27.376 2°46.336 -999 0.037783 0.202674 -1.035392
2009-04-29 11:37:29 51°27.45 2°46.571 -999 0.038709 0.207734 -1.035392
2009-04-29 11:38:29 51°27.53 2°46.801 -999 0.038297 0.205485 -1.035392
2009-04-29 11:39:29 51°27.606 2°47.035 -999 0.039326 0.211117 -1.035392
2009-04-29 11:40:29 51°27.681 2°47.271 -999 0.037783 0.202692 -1.035392
2009-04-29 11:41:29 51°27.757 2°47.506 -999 0.038606 0.207201 -1.035392
2009-04-29 11:42:28 51°27.836 2°47.734 -999 0.03912 0.210009 -1.035392
2009-04-29 11:43:29 51°27.922 2°47.966 -999 0.039532 0.212261 -1.035392
2009-04-29 11:44:29 51°28.011 2°48.189 -999 0.038915 0.208894 -1.035392
2009-04-29 11:45:29 51°28.098 2°48.418 -999 0.038297 0.20553 -1.035392
2009-04-29 11:46:29 51°28.186 2°48.643 -999 0.0384 0.206115 -1.035392
2009-04-29 11:47:29 51°28.267 2°48.873 -999 0.038812 0.208347 -1.035392
2009-04-29 11:48:29 51°28.35 2°49.103 -999 0.039635 0.212855 -1.035392
2009-04-29 11:49:29 51°28.437 2°49.333 -999 0.040252 0.216225 -1.035392
2009-04-29 11:50:29 51°28.521 2°49.566 -999 0.038915 0.208951 -1.035392
2009-04-29 11:51:29 51°28.607 2°49.797 -999 0.03912 0.210055 -1.035392
2009-04-29 11:52:29 51°28.694 2°50.026 -999 0.03912 0.210091 -1.035392
2009-04-29 11:53:29 51°28.779 2°50.259 -999 0.038091 0.204455 -1.035392
2009-04-29 11:54:29 51°28.862 2°50.495 -999 0.038606 0.2073 -1.035392
2009-04-29 11:55:29 51°28.947 2°50.733 -999 0.039223 0.210656 -1.035392
2009-04-29 11:56:29 51°29.035 2°50.968 -999 0.039738 0.213496 -1.035392
2009-04-29 11:57:29 51°29.12 2°51.205 -999 0.039223 0.210645 -1.035392
2009-04-29 11:58:29 51°29.197 2°51.451 -999 0.039738 0.213518 -1.035392
2009-04-29 11:59:29 51°29.276 2°51.696 -999 0.038812 0.208454 -1.035392
2009-04-29 12:00:29 51°29.355 2°51.941 -999 0.039532 0.212413 -1.035392
2009-04-29 12:01:29 51°29.435 2°52.187 -999 0.039429 0.211851 -1.035392
2009-04-29 12:02:29 51°29.521 2°52.43 -999 0.039429 0.211858 -1.035392
2009-04-29 12:03:29 51°29.607 2°52.674 -999 0.038194 0.205141 -1.035392
2009-04-29 12:04:29 51°29.689 2°52.922 -999 0.038503 0.20682 -1.035392
2009-04-29 12:05:29 51°29.776 2°53.166 -999 0.039326 0.211325 -1.035392
2009-04-29 12:06:29 51°29.856 2°53.418 -999 0.040149 0.215866 -1.035392
2009-04-29 12:07:29 51°29.933 2°53.674 -999 0.039944 0.214712 -1.035392
2009-04-29 12:08:29 51°30.014 2°53.927 -999 0.038709 0.208009 -1.035392
2009-04-29 12:09:29 51°30.102 2°54.171 -999 0.039223 0.210853 -1.035392
2009-04-29 12:10:29 51°30.187 2°54.418 -999 0.039841 0.214204 -1.035392
2009-04-29 12:11:29 51°30.274 2°54.664 -999 0.03912 0.21027 -1.035392
2009-04-29 12:12:29 51°30.357 2°54.914 -999 0.039635 0.213109 -1.035392
2009-04-29 12:13:29 51°30.437 2°55.164 -999 0.039326 0.211426 -1.035392
2009-04-29 12:14:29 51°30.517 2°55.412 -999 0.039429 0.212017 -1.035392
2009-04-29 12:15:29 51°30.594 2°55.662 -999 0.039532 0.212586 -1.035392
2009-04-29 12:16:29 51°30.67 2°55.915 -999 0.038812 0.208628 -1.035392
2009-04-29 12:17:29 51°30.747 2°56.166 -999 0.0384 0.20641 -1.035392
2009-04-29 12:18:29 51°30.828 2°56.411 -999 0.039223 0.210936 -1.035392
2009-04-29 12:19:29 51°30.915 2°56.65 -999 0.040149 0.215969 -1.035392
2009-04-29 12:20:29 51°31.001 2°56.889 -999 0.039944 0.214877 -1.035392
2009-04-29 12:21:29 51°31.081 2°57.135 -999 0.039532 0.212608 -1.035392
2009-04-29 12:22:29 51°31.162 2°57.382 -999 0.038812 0.20872 -1.035392
2009-04-29 12:23:29 51°31.248 2°57.624 -999 0.038812 0.20872 -1.035392
2009-04-29 12:24:29 51°31.337 2°57.864 -999 0.0384 0.206462 -1.035392
2009-04-29 12:25:29 51°31.42 2°58.111 -999 0.03912 0.21042 -1.035392
2009-04-29 12:26:29 51°31.503 2°58.361 -999 0.038297 0.20595 -1.035392
2009-04-29 12:27:29 51°31.587 2°58.61 -999 0.039429 0.212133 -1.035392
2009-04-29 12:28:29 51°31.674 2°58.853 -999 0.0384 0.206515 -1.035392
2009-04-29 12:29:29 51°31.758 2°59.101 -999 0.039223 0.211055 -1.035392
2009-04-29 12:30:29 51°31.842 2°59.349 -999 0.039223 0.211022 -1.035392
2009-04-29 12:31:29 51°31.932 2°59.591 -999 0.039532 0.212728 -1.035392
2009-04-29 12:32:29 51°32.024 2°59.832 -999 0.039018 0.209887 -1.035392
2009-04-29 12:33:29 51°32.115 3°0.073 -999 0.039429 0.212176 -1.035392
2009-04-29 12:34:29 51°32.2 3°0.323 -999 0.040252 0.216676 -1.035392
2009-04-29 12:35:29 51°32.283 3°0.575 -999 0.039223 0.211055 -1.035392
2009-04-29 12:36:29 51°32.367 3°0.83 -999 0.039532 0.212746 -1.035392
2009-04-29 12:37:29 51°32.451 3°1.088 -999 0.039532 0.21279 -1.035392
2009-04-29 12:38:29 51°32.532 3°1.35 -999 0.039944 0.215042 -1.035392
2009-04-29 12:39:29 51°32.617 3°1.608 -999 0.038812 0.208809 -1.035392
2009-04-29 12:40:29 51°32.699 3°1.87 -999 0.039635 0.213411 -1.035392
2009-04-29 12:41:29 51°32.786 3°2.131 -999 0.040047 0.215623 -1.035392
2009-04-29 12:42:29 51°32.876 3°2.387 -999 0.039738 0.213945 -1.035392
2009-04-29 12:43:29 51°32.965 3°2.646 -999 0.038503 0.207211 -1.035392
2009-04-29 12:44:29 51°33.054 3°2.905 -999 0.039326 0.211729 -1.035392
2009-04-29 12:45:29 51°33.142 3°3.164 -999 0.03912 0.210593 -1.035392
2009-04-29 12:46:29 51°33.116 3°3.46 -999 0.043443 0.234406 -1.035392
2009-04-29 12:47:29 51°32.986 3°3.709 -999 0.046015 0.248633 -1.035392
2009-04-29 12:48:29 51°32.84 3°3.94 -999 0.045604 0.24637 -1.035392
2009-04-29 12:49:29 51°32.692 3°4.168 -999 0.045912 0.248052 -1.035392
2009-04-29 12:50:29 51°32.543 3°4.39 -999 0.046221 0.249739 -1.035392
2009-04-29 12:51:29 51°32.393 3°4.606 -999 0.045398 0.245247 -1.035392
2009-04-29 12:52:29 51°32.24 3°4.819 -999 0.044163 0.238441 -1.035392
2009-04-29 12:53:29 51°32.087 3°5.034 -999 0.044266 0.239003 -1.035392
2009-04-29 12:54:29 51°31.906 3°5.177 -999 0.042825 0.23107 -1.035392
2009-04-29 12:55:29 51°31.702 3°5.116 -999 0.045912 0.248112 -1.035392
2009-04-29 12:56:29 51°31.566 3°4.859 -999 0.049205 0.26648 -1.035392
2009-04-29 12:57:29 51°31.484 3°4.542 -999 0.051264 0.277908 -1.035392
2009-04-29 12:58:29 51°31.394 3°4.228 -999 0.050235 0.27217 -1.035392
2009-04-29 12:59:29 51°31.297 3°3.918 -999 0.048691 0.26361 -1.035392
2009-04-29 13:00:29 51°31.201 3°3.607 -999 0.048176 0.260788 -1.035392
2009-04-29 13:01:29 51°31.089 3°3.31 -999 0.049514 0.268234 -1.035392
2009-04-29 13:02:29 51°30.974 3°3.014 -999 0.05044 0.273393 -1.035392
2009-04-29 13:03:29 51°30.859 3°2.717 -999 0.04653 0.251731 -1.035392
2009-04-29 13:04:29 51°30.748 3°2.419 -999 0.05044 0.273436 -1.035392
2009-04-29 13:05:29 51°30.637 3°2.119 -999 0.049411 0.267705 -1.035392
2009-04-29 13:06:29 51°30.53 3°1.817 -999 0.05044 0.273412 -1.035392
2009-04-29 13:07:29 51°30.421 3°1.517 -999 0.047662 0.257988 -1.035392
2009-04-29 13:08:29 51°30.318 3°1.213 -999 0.049926 0.270678 -1.035392
2009-04-29 13:09:29 51°30.213 3°0.911 -999 0.048279 0.261439 -1.035392
2009-04-29 13:10:29 51°30.105 3°0.613 -999 0.049411 0.267789 -1.035392
2009-04-29 13:11:29 51°30 3°0.313 -999 0.048485 0.262607 -1.035392
2009-04-29 13:12:29 51°29.895 3°0.014 -999 0.049103 0.266234 -1.035392
2009-04-29 13:13:29 51°29.794 2°59.713 -999 0.048897 0.265073 -1.035392
2009-04-29 13:14:29 51°29.688 2°59.417 -999 0.048485 0.262795 -1.035392
2009-04-29 13:15:29 51°29.579 2°59.124 -999 0.049308 0.26733 -1.035392
2009-04-29 13:16:29 51°29.472 2°58.83 -999 0.049 0.265561 -1.035392
2009-04-29 13:17:29 51°29.366 2°58.536 -999 0.04972 0.269709 -1.035392
2009-04-29 13:18:29 51°29.259 2°58.244 -999 0.049103 0.266387 -1.035392
2009-04-29 13:19:29 51°29.149 2°57.953 -999 0.047765 0.258886 -1.035392
2009-04-29 13:20:29 51°29.041 2°57.661 -999 0.048279 0.261872 -1.035392
2009-04-29 13:21:29 51°28.935 2°57.366 -999 0.049205 0.267108 -1.035392
2009-04-29 13:22:29 51°28.831 2°57.072 -999 0.048279 0.261876 -1.035392
2009-04-29 13:23:29 51°28.723 2°56.783 -999 0.049308 0.267586 -1.035392
2009-04-29 13:24:29 51°28.622 2°56.486 -999 0.047765 0.259058 -1.035392
2009-04-29 13:25:29 51°28.521 2°56.189 -999 0.048691 0.264231 -1.035392
2009-04-29 13:26:29 51°28.411 2°55.902 -999 0.049103 0.266494 -1.035392
2009-04-29 13:27:29 51°28.299 2°55.618 -999 0.046941 0.254493 -1.035392
2009-04-29 13:28:29 51°28.189 2°55.331 -999 0.049617 0.269349 -1.035392
2009-04-29 13:29:29 51°28.078 2°55.046 -999 0.049205 0.267033 -1.035392
2009-04-29 13:30:29 51°27.968 2°54.762 -999 0.047765 0.259112 -1.035392
2009-04-29 13:31:29 51°27.858 2°54.479 -999 0.048279 0.262045 -1.035392
2009-04-29 13:32:29 51°27.748 2°54.197 -999 0.048279 0.261977 -1.035392
2009-04-29 13:33:29 51°27.636 2°53.918 -999 0.048485 0.263175 -1.035392
2009-04-29 13:34:29 51°27.529 2°53.635 -999 0.046839 0.254103 -1.035392
2009-04-29 13:35:29 51°27.423 2°53.35 -999 0.047868 0.259742 -1.035392
2009-04-29 13:36:29 51°27.317 2°53.066 -999 0.047456 0.257534 -1.035392
2009-04-29 13:37:29 51°27.214 2°52.781 -999 0.049514 0.269007 -1.035392
2009-04-29 13:38:29 51°27.111 2°52.497 -999 0.049103 0.266713 -1.035392
2009-04-29 13:39:29 51°27.008 2°52.216 -999 0.049823 0.270654 -1.035392
2009-04-29 13:40:29 51°26.911 2°51.933 -999 0.047765 0.25927 -1.035392
2009-04-29 13:41:29 51°26.811 2°51.655 -999 0.047353 0.257016 -1.035392
2009-04-29 13:42:29 51°26.707 2°51.383 -999 0.047662 0.258721 -1.035392
2009-04-29 13:43:29 51°26.604 2°51.11 -999 0.047971 0.260467 -1.035392
2009-04-29 13:44:29 51°26.5 2°50.833 -999 0.047765 0.259338 -1.035392
2009-04-29 13:45:29 51°26.388 2°50.562 -999 0.046324 0.251307 -1.035392
2009-04-29 13:46:29 51°26.278 2°50.293 -999 0.048485 0.26334 -1.035392
2009-04-29 13:47:29 51°26.172 2°50.022 -999 0.04725 0.25649 -1.035392
2009-04-29 13:48:29 51°26.073 2°49.744 -999 0.048691 0.264526 -1.035392
2009-04-29 13:49:29 51°25.973 2°49.47 -999 0.048279 0.262205 -1.035392
2009-04-29 13:50:29 51°25.869 2°49.202 -999 0.046427 0.251953 -1.035392
2009-04-29 13:51:29 51°25.766 2°48.935 -999 0.048382 0.262851 -1.035392
2009-04-29 13:52:29 51°25.664 2°48.668 -999 0.048073 0.261148 -1.035392
2009-04-29 13:53:29 51°25.564 2°48.399 -999 0.047147 0.25595 -1.035392
2009-04-29 13:54:29 51°25.463 2°48.132 -999 0.046427 0.251966 -1.035392
2009-04-29 13:55:29 51°25.367 2°47.861 -999 0.047662 0.258875 -1.035392
2009-04-29 13:56:29 51°25.27 2°47.591 -999 0.047353 0.257101 -1.035392
2009-04-29 13:57:29 51°25.17 2°47.33 -999 0.047662 0.258897 -1.035392
2009-04-29 13:58:29 51°25.071 2°47.077 -999 0.047559 0.25833 -1.035392
2009-04-29 13:59:29 51°24.973 2°46.821 -999 0.047147 0.256102 -1.035392
2009-04-29 14:00:29 51°24.872 2°46.572 -999 0.047662 0.258956 -1.035392
2009-04-29 14:01:29 51°24.772 2°46.32 -999 0.048073 0.261271 -1.035392
2009-04-29 14:02:29 51°24.672 2°46.071 -999 0.047353 0.257236 -1.035392
2009-04-29 14:03:29 51°24.574 2°45.822 -999 0.046118 0.250432 -1.035392
2009-04-29 14:04:29 51°24.474 2°45.576 -999 0.046324 0.251548 -1.035392
2009-04-29 14:05:29 51°24.373 2°45.333 -999 0.047559 0.258456 -1.035392
2009-04-29 14:06:29 51°24.259 2°45.112 -999 0.048897 0.265921 -1.035392
2009-04-29 14:07:29 51°24.086 2°45.039 -999 0.049 0.266406 -1.035392
2009-04-29 14:08:29 51°23.912 2°45.142 -999 0.040561 0.219592 -1.035392
2009-04-29 14:09:29 51°23.757 2°45.324 -999 0.04087 0.221354 -1.035392
2009-04-29 14:10:29 51°23.604 2°45.514 -999 0.040664 0.22025 -1.035392
2009-04-29 14:11:29 51°23.445 2°45.689 -999 0.039635 0.21459 -1.035392
2009-04-29 14:12:29 51°23.285 2°45.858 -999 0.045809 0.248837 -1.035392
2009-04-29 14:13:29 51°23.126 2°46.033 -999 0.047353 0.257393 -1.035392
2009-04-29 14:14:29 51°22.954 2°46.142 -999 0.053425 0.291309 -1.035392
2009-04-29 14:15:29 51°22.77 2°46.126 -999 0.054145 0.295461 -1.035392
2009-04-29 14:16:29 51°22.585 2°46.098 -999 0.051367 0.279886 -1.035392
2009-04-29 14:17:29 51°22.399 2°46.085 -999 0.053219 0.290265 -1.035392
2009-04-29 14:18:29 51°22.213 2°46.136 -999 0.051264 0.279312 -1.035392
2009-04-29 14:19:29 51°22.04 2°46.278 -999 0.04334 0.235198 -1.035392
2009-04-29 14:20:29 51°21.884 2°46.478 -999 0.043648 0.236907 -1.035392
2009-04-29 14:21:29 51°21.726 2°46.677 -999 0.044369 0.240906 -1.035392
2009-04-29 14:22:29 51°21.563 2°46.862 -999 0.044266 0.240361 -1.035392
2009-04-29 14:23:29 51°21.408 2°47.059 -999 0.04478 0.243239 -1.035392
2009-04-29 14:24:29 51°21.252 2°47.255 -999 0.041796 0.226745 -1.035392
2009-04-29 14:25:29 51°21.096 2°47.452 -999 0.043031 0.233599 -1.035392
2009-04-29 14:26:29 51°20.938 2°47.647 -999 0.042002 0.227914 -1.035392
2009-04-29 14:27:29 51°20.781 2°47.837 -999 0.042105 0.228464 -1.035392
2009-04-29 14:28:29 51°20.628 2°48.026 -999 0.043237 0.234759 -1.035392
2009-04-29 14:29:29 51°20.476 2°48.212 -999 0.04406 0.239329 -1.035392
2009-04-29 14:30:29 51°20.325 2°48.402 -999 0.042311 0.229646 -1.035392
2009-04-29 14:31:29 51°20.171 2°48.589 -999 0.044266 0.240491 -1.035392
2009-04-29 14:32:29 51°20.019 2°48.778 -999 0.041693 0.226243 -1.035392
2009-04-29 14:33:29 51°19.866 2°48.969 -999 0.04334 0.23537 -1.035392
2009-04-29 14:34:29 51°19.713 2°49.16 -999 0.043443 0.235948 -1.035392
2009-04-29 14:35:29 51°19.56 2°49.355 -999 0.040767 0.221146 -1.035392
2009-04-29 14:36:29 51°19.406 2°49.551 -999 0.042516 0.230828 -1.035392
2009-04-29 14:37:29 51°19.251 2°49.749 -999 0.044369 0.241124 -1.035392
2009-04-29 14:38:29 51°19.094 2°49.947 -999 0.041693 0.22629 -1.035392
2009-04-29 14:39:29 51°18.939 2°50.151 -999 0.042311 0.229717 -1.035392
2009-04-29 14:40:29 51°18.783 2°50.351 -999 0.042516 0.230868 -1.035392
2009-04-29 14:41:29 51°18.63 2°50.553 -999 0.042002 0.228025 -1.035392
2009-04-29 14:42:29 51°18.478 2°50.752 -999 0.041282 0.22405 -1.035392
2009-04-29 14:43:29 51°18.323 2°50.947 -999 0.040767 0.221223 -1.035392
2009-04-29 14:44:29 51°18.17 2°51.144 -999 0.04087 0.22178 -1.035392
2009-04-29 14:45:29 51°18.016 2°51.338 -999 0.04159 0.225788 -1.035392
2009-04-29 14:46:29 51°17.861 2°51.53 -999 0.043751 0.23775 -1.035392
2009-04-29 14:47:29 51°17.707 2°51.726 -999 0.044266 0.240637 -1.035392
2009-04-29 14:48:29 51°17.553 2°51.92 -999 0.042002 0.228096 -1.035392
2009-04-29 14:49:29 51°17.388 2°52.086 -999 0.041179 0.223536 -1.035392
2009-04-29 14:50:29 51°17.22 2°52.245 -999 0.040664 0.220704 -1.035392
2009-04-29 14:51:29 51°17.052 2°52.406 -999 0.044575 0.24238 -1.035392
2009-04-29 14:52:29 51°16.884 2°52.564 -999 0.043443 0.236104 -1.035392
2009-04-29 14:53:29 51°16.717 2°52.724 -999 0.040252 0.218457 -1.035392
2009-04-29 14:54:29 51°16.55 2°52.881 -999 0.044472 0.241838 -1.035392
2009-04-29 14:55:29 51°16.384 2°53.03 -999 0.042825 0.232707 -1.035392
2009-04-29 14:56:29 51°16.216 2°53.178 -999 0.043854 0.238412 -1.035392
2009-04-29 14:57:29 51°16.047 2°53.325 -999 0.042928 0.233273 -1.035392
2009-04-29 14:58:29 51°15.88 2°53.476 -999 0.041384 0.224767 -1.035392
2009-04-29 14:59:29 51°15.712 2°53.621 -999 0.043751 0.237845 -1.035392
2009-04-29 15:00:29 51°15.544 2°53.759 -999 0.039841 0.216233 -1.035392
2009-04-29 15:01:29 51°15.373 2°53.885 -999 0.043031 0.233888 -1.035392
2009-04-29 15:02:29 51°15.203 2°54.014 -999 0.040767 0.221361 -1.035392
2009-04-29 15:03:29 51°15.032 2°54.144 -999 0.041796 0.22706 -1.035392
2009-04-29 15:04:29 51°14.87 2°54.296 -999 0.047765 0.260273 -1.035392
2009-04-29 15:05:29 51°14.717 2°54.485 -999 0.041076 0.223091 -1.035392
2009-04-29 15:06:29 51°14.564 2°54.68 -999 0.046427 0.252798 -1.035392
2009-04-29 15:07:29 51°14.432 2°54.899 -999 0.040252 0.218574 -1.035392
2009-04-29 15:08:29 51°14.332 2°55.101 -999 0.042414 0.230555 -1.035392
2009-04-29 15:09:29 51°14.251 2°55.255 -999 0.04406 0.2397 -1.035392
2009-04-29 15:10:29 51°14.158 2°55.38 -999 0.04334 0.235723 -1.035392
2009-04-29 15:11:29 51°14.048 2°55.467 -999 0.04653 0.253482 -1.035392
2009-04-29 15:12:29 51°13.939 2°55.547 -999 0.042928 0.233431 -1.035392
2009-04-29 15:13:33 51°13.846 2°55.617 -999 0.044883 0.244333 -1.035392
2009-04-29 15:14:31 51°13.779 2°55.678 -999 0.044266 0.240918 -1.035392
2009-04-29 15:15:29 51°13.736 2°55.748 -999 0.044472 0.242062 -1.035392
2009-04-29 15:16:29 51°13.701 2°55.819 -999 0.044369 0.241503 -1.035392
2009-04-29 15:17:33 51°13.682 2°55.893 -999 0.045604 0.248413 -1.035392